sensor_id;sensor_type;location;lat;lon;timestamp;pressure;altitude;pressure_sealevel;temperature;humidity
84145;BME280;74264;48.988;12.040;2024-02-23T00:01:49;95705.38;;;8.27;85.97
84145;BME280;74264;48.988;12.040;2024-02-23T00:04:14;95717.53;;;8.21;85.86
84145;BME280;74264;48.988;12.040;2024-02-23T00:06:40;95718.16;;;8.17;85.85
84145;BME280;74264;48.988;12.040;2024-02-23T00:09:05;95726.69;;;8.12;85.58
84145;BME280;74264;48.988;12.040;2024-02-23T00:11:31;95734.00;;;8.03;85.98
84145;BME280;74264;48.988;12.040;2024-02-23T00:13:59;95747.19;;;7.97;86.92
84145;BME280;74264;48.988;12.040;2024-02-23T00:16:25;95743.16;;;7.94;87.00
84145;BME280;74264;48.988;12.040;2024-02-23T00:18:52;95752.25;;;7.92;86.03
84145;BME280;74264;48.988;12.040;2024-02-23T00:21:17;95747.19;;;7.90;86.29
84145;BME280;74264;48.988;12.040;2024-02-23T00:23:43;95753.69;;;7.88;86.11
84145;BME280;74264;48.988;12.040;2024-02-23T00:26:08;95750.03;;;7.89;86.46
84145;BME280;74264;48.988;12.040;2024-02-23T00:28:34;95751.47;;;7.85;87.92
84145;BME280;74264;48.988;12.040;2024-02-23T00:31:00;95761.78;;;7.86;86.66
84145;BME280;74264;48.988;12.040;2024-02-23T00:33:25;95767.88;;;7.87;86.34
84145;BME280;74264;48.988;12.040;2024-02-23T00:35:51;95781.25;;;7.85;86.56
84145;BME280;74264;48.988;12.040;2024-02-23T00:38:17;95781.44;;;7.77;88.32
84145;BME280;74264;48.988;12.040;2024-02-23T00:40:43;95791.78;;;7.72;88.74
84145;BME280;74264;48.988;12.040;2024-02-23T00:43:08;95786.28;;;7.67;88.86
84145;BME280;74264;48.988;12.040;2024-02-23T00:45:34;95794.81;;;7.63;89.68
84145;BME280;74264;48.988;12.040;2024-02-23T00:47:59;95797.63;;;7.55;89.91
84145;BME280;74264;48.988;12.040;2024-02-23T00:50:25;95811.00;;;7.47;89.38
84145;BME280;74264;48.988;12.040;2024-02-23T00:52:54;95816.88;;;7.55;88.72
84145;BME280;74264;48.988;12.040;2024-02-23T00:55:19;95807.16;;;7.62;88.56
84145;BME280;74264;48.988;12.040;2024-02-23T00:57:45;95811.81;;;7.54;89.38
84145;BME280;74264;48.988;12.040;2024-02-23T01:00:11;95817.47;;;7.51;89.64
84145;BME280;74264;48.988;12.040;2024-02-23T01:02:38;95814.44;;;7.41;89.80
84145;BME280;74264;48.988;12.040;2024-02-23T01:05:04;95817.66;;;7.36;90.74
84145;BME280;74264;48.988;12.040;2024-02-23T01:07:30;95832.63;;;7.29;91.28
84145;BME280;74264;48.988;12.040;2024-02-23T01:09:56;95834.84;;;7.19;91.88
84145;BME280;74264;48.988;12.040;2024-02-23T01:12:22;95838.25;;;7.20;91.09
84145;BME280;74264;48.988;12.040;2024-02-23T01:14:47;95842.31;;;7.22;91.26
84145;BME280;74264;48.988;12.040;2024-02-23T01:17:14;95839.06;;;7.20;91.31
84145;BME280;74264;48.988;12.040;2024-02-23T01:19:43;95841.50;;;7.22;91.90
84145;BME280;74264;48.988;12.040;2024-02-23T01:22:10;95849.03;;;7.25;91.60
84145;BME280;74264;48.988;12.040;2024-02-23T01:24:35;95854.09;;;7.33;91.45
84145;BME280;74264;48.988;12.040;2024-02-23T01:27:01;95864.41;;;7.34;91.32
84145;BME280;74264;48.988;12.040;2024-02-23T01:29:27;95863.03;;;7.38;91.22
84145;BME280;74264;48.988;12.040;2024-02-23T01:31:52;95873.59;;;7.51;88.68
84145;BME280;74264;48.988;12.040;2024-02-23T01:34:22;95897.91;;;7.47;87.49
84145;BME280;74264;48.988;12.040;2024-02-23T01:36:48;95926.97;;;7.26;89.46
84145;BME280;74264;48.988;12.040;2024-02-23T01:39:14;95928.31;;;6.47;88.06
84145;BME280;74264;48.988;12.040;2024-02-23T01:41:39;95923.47;;;5.80;88.38
84145;BME280;74264;48.988;12.040;2024-02-23T01:44:06;95935.78;;;5.59;90.51
84145;BME280;74264;48.988;12.040;2024-02-23T01:46:32;95939.31;;;5.51;89.74
84145;BME280;74264;48.988;12.040;2024-02-23T01:48:57;95934.84;;;5.52;89.26
84145;BME280;74264;48.988;12.040;2024-02-23T01:51:24;95926.81;;;5.39;90.25
84145;BME280;74264;48.988;12.040;2024-02-23T01:53:50;95933.09;;;5.38;89.40
84145;BME280;74264;48.988;12.040;2024-02-23T01:56:16;95939.94;;;5.39;88.23
84145;BME280;74264;48.988;12.040;2024-02-23T01:58:46;95948.59;;;5.33;89.02
84145;BME280;74264;48.988;12.040;2024-02-23T02:01:12;95948.47;;;5.26;88.07
84145;BME280;74264;48.988;12.040;2024-02-23T02:03:41;95956.72;;;5.23;90.09
84145;BME280;74264;48.988;12.040;2024-02-23T02:06:06;95947.22;;;5.22;89.24
84145;BME280;74264;48.988;12.040;2024-02-23T02:08:33;95940.81;;;5.25;87.71
84145;BME280;74264;48.988;12.040;2024-02-23T02:10:59;95934.28;;;5.21;87.23
84145;BME280;74264;48.988;12.040;2024-02-23T02:13:24;95933.03;;;5.17;87.83
84145;BME280;74264;48.988;12.040;2024-02-23T02:15:50;95949.31;;;5.12;88.94
84145;BME280;74264;48.988;12.040;2024-02-23T02:18:15;95948.50;;;5.12;87.83
84145;BME280;74264;48.988;12.040;2024-02-23T02:20:50;95948.06;;;5.08;88.67
84145;BME280;74264;48.988;12.040;2024-02-23T02:23:17;95959.19;;;5.10;87.54
84145;BME280;74264;48.988;12.040;2024-02-23T02:25:42;95962.97;;;5.07;87.99
84145;BME280;74264;48.988;12.040;2024-02-23T02:28:08;95963.53;;;5.03;88.38
84145;BME280;74264;48.988;12.040;2024-02-23T02:30:33;95974.91;;;5.10;85.41
84145;BME280;74264;48.988;12.040;2024-02-23T02:32:59;95977.34;;;4.97;87.96
84145;BME280;74264;48.988;12.040;2024-02-23T02:35:24;95991.47;;;4.96;88.14
84145;BME280;74264;48.988;12.040;2024-02-23T02:37:50;95994.63;;;4.91;88.49
84145;BME280;74264;48.988;12.040;2024-02-23T02:40:16;96003.66;;;4.89;87.59
84145;BME280;74264;48.988;12.040;2024-02-23T02:42:41;96006.84;;;4.84;87.56
84145;BME280;74264;48.988;12.040;2024-02-23T02:45:07;96008.19;;;4.80;88.28
84145;BME280;74264;48.988;12.040;2024-02-23T02:47:32;96007.53;;;4.78;88.39
84145;BME280;74264;48.988;12.040;2024-02-23T02:49:58;96004.91;;;4.78;87.87
84145;BME280;74264;48.988;12.040;2024-02-23T02:52:24;96021.47;;;4.79;88.57
84145;BME280;74264;48.988;12.040;2024-02-23T02:54:50;96034.13;;;4.75;88.70
84145;BME280;74264;48.988;12.040;2024-02-23T02:57:16;96034.31;;;4.74;89.05
84145;BME280;74264;48.988;12.040;2024-02-23T02:59:41;96041.00;;;4.76;87.29
84145;BME280;74264;48.988;12.040;2024-02-23T03:02:07;96034.31;;;4.74;89.08
84145;BME280;74264;48.988;12.040;2024-02-23T03:04:32;96033.31;;;4.75;89.07
84145;BME280;74264;48.988;12.040;2024-02-23T03:06:58;96048.22;;;4.74;88.96
84145;BME280;74264;48.988;12.040;2024-02-23T03:09:24;96048.41;;;4.73;89.48
84145;BME280;74264;48.988;12.040;2024-02-23T03:11:49;96048.22;;;4.74;89.36
84145;BME280;74264;48.988;12.040;2024-02-23T03:14:15;96049.22;;;4.73;88.83
84145;BME280;74264;48.988;12.040;2024-02-23T03:16:43;96061.69;;;4.71;88.14
84145;BME280;74264;48.988;12.040;2024-02-23T03:19:09;96049.75;;;4.69;88.53
84145;BME280;74264;48.988;12.040;2024-02-23T03:21:34;96056.44;;;4.71;89.54
84145;BME280;74264;48.988;12.040;2024-02-23T03:24:00;96064.13;;;4.73;89.96
84145;BME280;74264;48.988;12.040;2024-02-23T03:26:25;96072.16;;;4.71;89.83
84145;BME280;74264;48.988;12.040;2024-02-23T03:28:51;96073.00;;;4.72;89.95
84145;BME280;74264;48.988;12.040;2024-02-23T03:31:17;96074.97;;;4.70;90.05
84145;BME280;74264;48.988;12.040;2024-02-23T03:33:42;96076.97;;;4.68;89.88
84145;BME280;74264;48.988;12.040;2024-02-23T03:36:08;96074.34;;;4.68;90.62
84145;BME280;74264;48.988;12.040;2024-02-23T03:38:34;96072.03;;;4.65;89.83
84145;BME280;74264;48.988;12.040;2024-02-23T03:40:59;96075.03;;;4.62;90.03
84145;BME280;74264;48.988;12.040;2024-02-23T03:43:25;96078.47;;;4.62;89.45
84145;BME280;74264;48.988;12.040;2024-02-23T03:45:52;96087.31;;;4.61;89.34
84145;BME280;74264;48.988;12.040;2024-02-23T03:48:17;96084.69;;;4.61;88.31
84145;BME280;74264;48.988;12.040;2024-02-23T03:50:43;96076.84;;;4.61;88.53
84145;BME280;74264;48.988;12.040;2024-02-23T03:53:08;96081.75;;;4.64;89.40
84145;BME280;74264;48.988;12.040;2024-02-23T03:55:34;96076.13;;;4.67;88.23
84145;BME280;74264;48.988;12.040;2024-02-23T03:58:00;96083.34;;;4.65;89.11
84145;BME280;74264;48.988;12.040;2024-02-23T04:00:25;96091.13;;;4.59;89.02
84145;BME280;74264;48.988;12.040;2024-02-23T04:02:51;96090.31;;;4.58;89.55
84145;BME280;74264;48.988;12.040;2024-02-23T04:05:20;96090.19;;;4.52;89.85
84145;BME280;74264;48.988;12.040;2024-02-23T04:07:46;96087.72;;;4.50;90.08
84145;BME280;74264;48.988;12.040;2024-02-23T04:10:11;96076.28;;;4.51;89.95
84145;BME280;74264;48.988;12.040;2024-02-23T04:12:42;96071.84;;;4.52;89.76
84145;BME280;74264;48.988;12.040;2024-02-23T04:15:09;96086.75;;;4.51;89.59
84145;BME280;74264;48.988;12.040;2024-02-23T04:17:35;96074.28;;;4.53;89.17
84145;BME280;74264;48.988;12.040;2024-02-23T04:20:05;96073.66;;;4.51;89.14
84145;BME280;74264;48.988;12.040;2024-02-23T04:22:31;96077.88;;;4.52;89.47
84145;BME280;74264;48.988;12.040;2024-02-23T04:24:57;96078.06;;;4.51;90.00
84145;BME280;74264;48.988;12.040;2024-02-23T04:27:22;96082.34;;;4.52;90.29
84145;BME280;74264;48.988;12.040;2024-02-23T04:29:48;96078.06;;;4.51;89.34
84145;BME280;74264;48.988;12.040;2024-02-23T04:32:13;96077.25;;;4.50;90.17
84145;BME280;74264;48.988;12.040;2024-02-23T04:34:39;96068.59;;;4.50;91.57
84145;BME280;74264;48.988;12.040;2024-02-23T04:37:05;96076.69;;;4.40;91.17
84145;BME280;74264;48.988;12.040;2024-02-23T04:39:31;96085.81;;;4.44;91.03
84145;BME280;74264;48.988;12.040;2024-02-23T04:41:57;96083.84;;;4.46;90.35
84145;BME280;74264;48.988;12.040;2024-02-23T04:44:23;96094.47;;;4.45;90.07
84145;BME280;74264;48.988;12.040;2024-02-23T04:46:49;96095.66;;;4.42;89.72
84145;BME280;74264;48.988;12.040;2024-02-23T04:49:14;96093.72;;;4.36;90.11
84145;BME280;74264;48.988;12.040;2024-02-23T04:51:40;96093.56;;;4.38;90.91
84145;BME280;74264;48.988;12.040;2024-02-23T04:54:05;96097.97;;;4.37;90.47
84145;BME280;74264;48.988;12.040;2024-02-23T04:56:31;96097.34;;;4.35;89.94
84145;BME280;74264;48.988;12.040;2024-02-23T04:58:58;96097.97;;;4.37;89.15
84145;BME280;74264;48.988;12.040;2024-02-23T05:01:24;96099.78;;;4.37;90.07
84145;BME280;74264;48.988;12.040;2024-02-23T05:03:50;96105.25;;;4.27;91.23
84145;BME280;74264;48.988;12.040;2024-02-23T05:06:16;96106.53;;;4.31;91.14
84145;BME280;74264;48.988;12.040;2024-02-23T05:08:41;96104.56;;;4.33;91.82
84145;BME280;74264;48.988;12.040;2024-02-23T05:11:09;96113.75;;;4.29;91.48
84145;BME280;74264;48.988;12.040;2024-02-23T05:13:35;96110.50;;;4.27;91.31
84145;BME280;74264;48.988;12.040;2024-02-23T05:16:02;96109.38;;;4.22;91.58
84145;BME280;74264;48.988;12.040;2024-02-23T05:18:27;96111.00;;;4.23;91.29
84145;BME280;74264;48.988;12.040;2024-02-23T05:20:53;96117.22;;;4.30;91.55
84145;BME280;74264;48.988;12.040;2024-02-23T05:23:19;96119.09;;;4.36;91.75
84145;BME280;74264;48.988;12.040;2024-02-23T05:25:44;96113.38;;;4.40;91.90
84145;BME280;74264;48.988;12.040;2024-02-23T05:28:10;96110.75;;;4.40;91.58
84145;BME280;74264;48.988;12.040;2024-02-23T05:30:36;96106.31;;;4.41;91.81
84145;BME280;74264;48.988;12.040;2024-02-23T05:33:02;96105.84;;;4.37;91.42
84145;BME280;74264;48.988;12.040;2024-02-23T05:35:29;96101.22;;;4.39;91.33
84145;BME280;74264;48.988;12.040;2024-02-23T05:37:55;96101.41;;;4.38;91.53
84145;BME280;74264;48.988;12.040;2024-02-23T05:40:21;96099.97;;;4.35;90.61
84145;BME280;74264;48.988;12.040;2024-02-23T05:42:47;96092.91;;;4.36;91.22
84145;BME280;74264;48.988;12.040;2024-02-23T05:45:12;96088.50;;;4.36;91.27
84145;BME280;74264;48.988;12.040;2024-02-23T05:47:38;96099.19;;;4.27;91.74
84145;BME280;74264;48.988;12.040;2024-02-23T05:50:04;96104.91;;;4.30;92.13
84145;BME280;74264;48.988;12.040;2024-02-23T05:52:33;96119.81;;;4.30;92.08
84145;BME280;74264;48.988;12.040;2024-02-23T05:54:59;96124.06;;;4.31;91.53
84145;BME280;74264;48.988;12.040;2024-02-23T05:57:29;96129.00;;;4.26;91.24
84145;BME280;74264;48.988;12.040;2024-02-23T05:59:55;96137.06;;;4.24;91.18
84145;BME280;74264;48.988;12.040;2024-02-23T06:02:21;96138.19;;;4.22;91.17
84145;BME280;74264;48.988;12.040;2024-02-23T06:04:47;96146.22;;;4.20;91.23
84145;BME280;74264;48.988;12.040;2024-02-23T06:07:13;96149.81;;;4.19;90.40
84145;BME280;74264;48.988;12.040;2024-02-23T06:09:41;96153.09;;;4.21;90.99
84145;BME280;74264;48.988;12.040;2024-02-23T06:12:07;96155.72;;;4.21;90.61
84145;BME280;74264;48.988;12.040;2024-02-23T06:14:34;96154.75;;;4.22;90.82
84145;BME280;74264;48.988;12.040;2024-02-23T06:17:00;96164.22;;;4.23;90.73
84145;BME280;74264;48.988;12.040;2024-02-23T06:19:25;96169.81;;;4.20;90.89
84145;BME280;74264;48.988;12.040;2024-02-23T06:21:51;96176.84;;;4.20;91.56
84145;BME280;74264;48.988;12.040;2024-02-23T06:24:17;96182.91;;;4.20;91.47
84145;BME280;74264;48.988;12.040;2024-02-23T06:26:43;96186.66;;;4.26;91.61
84145;BME280;74264;48.988;12.040;2024-02-23T06:29:08;96189.75;;;4.29;91.51
84145;BME280;74264;48.988;12.040;2024-02-23T06:31:37;96188.91;;;4.29;91.78
84145;BME280;74264;48.988;12.040;2024-02-23T06:34:04;96192.84;;;4.25;91.94
84145;BME280;74264;48.988;12.040;2024-02-23T06:36:29;96197.13;;;4.26;91.95
84145;BME280;74264;48.988;12.040;2024-02-23T06:38:55;96202.69;;;4.23;92.50
84145;BME280;74264;48.988;12.040;2024-02-23T06:41:21;96210.41;;;4.24;92.53
84145;BME280;74264;48.988;12.040;2024-02-23T06:43:49;96208.47;;;4.18;92.41
84145;BME280;74264;48.988;12.040;2024-02-23T06:46:18;96201.41;;;4.19;92.14
84145;BME280;74264;48.988;12.040;2024-02-23T06:48:45;96202.22;;;4.19;92.23
84145;BME280;74264;48.988;12.040;2024-02-23T06:51:11;96205.84;;;4.18;92.52
84145;BME280;74264;48.988;12.040;2024-02-23T06:53:36;96209.75;;;4.22;92.27
84145;BME280;74264;48.988;12.040;2024-02-23T06:56:03;96209.56;;;4.24;92.02
84145;BME280;74264;48.988;12.040;2024-02-23T06:58:29;96203.34;;;4.25;91.82
84145;BME280;74264;48.988;12.040;2024-02-23T07:00:55;96206.59;;;4.27;91.74
84145;BME280;74264;48.988;12.040;2024-02-23T07:03:20;96208.41;;;4.26;92.24
84145;BME280;74264;48.988;12.040;2024-02-23T07:05:46;96216.25;;;4.26;92.18
84145;BME280;74264;48.988;12.040;2024-02-23T07:08:12;96210.06;;;4.27;92.08
84145;BME280;74264;48.988;12.040;2024-02-23T07:10:38;96209.75;;;4.22;91.37
84145;BME280;74264;48.988;12.040;2024-02-23T07:13:04;96205.16;;;4.24;91.14
84145;BME280;74264;48.988;12.040;2024-02-23T07:15:29;96204.34;;;4.24;90.90
84145;BME280;74264;48.988;12.040;2024-02-23T07:17:55;96208.75;;;4.23;91.38
84145;BME280;74264;48.988;12.040;2024-02-23T07:20:22;96208.75;;;4.23;91.75
84145;BME280;74264;48.988;12.040;2024-02-23T07:22:48;96204.84;;;4.19;91.78
84145;BME280;74264;48.988;12.040;2024-02-23T07:25:20;96200.91;;;4.23;91.46
84145;BME280;74264;48.988;12.040;2024-02-23T07:27:46;96203.50;;;4.23;91.47
84145;BME280;74264;48.988;12.040;2024-02-23T07:30:14;96205.97;;;4.25;91.63
84145;BME280;74264;48.988;12.040;2024-02-23T07:32:41;96208.41;;;4.26;91.28
84145;BME280;74264;48.988;12.040;2024-02-23T07:35:07;96210.88;;;4.28;91.93
84145;BME280;74264;48.988;12.040;2024-02-23T07:37:33;96221.19;;;4.29;91.96
84145;BME280;74264;48.988;12.040;2024-02-23T07:39:59;96220.00;;;4.32;92.10
84145;BME280;74264;48.988;12.040;2024-02-23T07:42:25;96220.00;;;4.32;91.69
84145;BME280;74264;48.988;12.040;2024-02-23T07:44:50;96220.66;;;4.34;91.60
84145;BME280;74264;48.988;12.040;2024-02-23T07:47:16;96227.38;;;4.36;91.52
84145;BME280;74264;48.988;12.040;2024-02-23T07:49:42;96234.22;;;4.37;91.59
84145;BME280;74264;48.988;12.040;2024-02-23T07:52:08;96235.22;;;4.36;91.70
84145;BME280;74264;48.988;12.040;2024-02-23T07:54:34;96236.84;;;4.37;91.79
84145;BME280;74264;48.988;12.040;2024-02-23T07:57:00;96236.69;;;4.39;91.57
84145;BME280;74264;48.988;12.040;2024-02-23T07:59:26;96238.47;;;4.46;91.34
84145;BME280;74264;48.988;12.040;2024-02-23T08:01:51;96241.56;;;4.50;91.84
84145;BME280;74264;48.988;12.040;2024-02-23T08:04:17;96240.56;;;4.51;92.02
84145;BME280;74264;48.988;12.040;2024-02-23T08:06:42;96232.88;;;4.49;91.07
84145;BME280;74264;48.988;12.040;2024-02-23T08:09:08;96237.13;;;4.50;91.41
84145;BME280;74264;48.988;12.040;2024-02-23T08:11:34;96237.28;;;4.49;90.85
84145;BME280;74264;48.988;12.040;2024-02-23T08:14:03;96238.94;;;4.50;90.75
84145;BME280;74264;48.988;12.040;2024-02-23T08:16:29;96245.63;;;4.52;91.42
84145;BME280;74264;48.988;12.040;2024-02-23T08:18:54;96245.97;;;4.49;91.19
84145;BME280;74264;48.988;12.040;2024-02-23T08:21:20;96241.56;;;4.50;91.61
84145;BME280;74264;48.988;12.040;2024-02-23T08:23:45;96240.38;;;4.52;91.58
84145;BME280;74264;48.988;12.040;2024-02-23T08:26:11;96241.22;;;4.53;90.75
84145;BME280;74264;48.988;12.040;2024-02-23T08:28:37;96234.81;;;4.55;90.52
84145;BME280;74264;48.988;12.040;2024-02-23T08:31:02;96234.09;;;4.61;90.52
84145;BME280;74264;48.988;12.040;2024-02-23T08:33:28;96222.28;;;4.65;90.63
84145;BME280;74264;48.988;12.040;2024-02-23T08:35:54;96231.09;;;4.72;91.07
84145;BME280;74264;48.988;12.040;2024-02-23T08:38:19;96219.09;;;4.78;90.47
84145;BME280;74264;48.988;12.040;2024-02-23T08:40:45;96213.53;;;4.81;90.28
84145;BME280;74264;48.988;12.040;2024-02-23T08:43:11;96202.31;;;4.87;89.56
84145;BME280;74264;48.988;12.040;2024-02-23T08:45:37;96208.06;;;4.90;89.17
84145;BME280;74264;48.988;12.040;2024-02-23T08:48:03;96213.75;;;4.94;88.21
84145;BME280;74264;48.988;12.040;2024-02-23T08:50:32;96210.31;;;4.93;88.16
84145;BME280;74264;48.988;12.040;2024-02-23T08:52:58;96209.16;;;4.96;88.87
84145;BME280;74264;48.988;12.040;2024-02-23T08:55:23;96228.31;;;4.96;87.54
84145;BME280;74264;48.988;12.040;2024-02-23T08:57:49;96227.69;;;4.94;87.75
84145;BME280;74264;48.988;12.040;2024-02-23T09:00:15;96220.13;;;4.99;87.93
84145;BME280;74264;48.988;12.040;2024-02-23T09:02:41;96225.84;;;5.03;87.85
84145;BME280;74264;48.988;12.040;2024-02-23T09:05:09;96218.75;;;5.03;87.58
84145;BME280;74264;48.988;12.040;2024-02-23T09:07:35;96230.72;;;5.06;87.16
84145;BME280;74264;48.988;12.040;2024-02-23T09:10:02;96231.00;;;5.11;86.96
84145;BME280;74264;48.988;12.040;2024-02-23T09:12:28;96229.34;;;5.18;88.09
84145;BME280;74264;48.988;12.040;2024-02-23T09:14:54;96240.81;;;5.17;86.29
84145;BME280;74264;48.988;12.040;2024-02-23T09:17:19;96258.97;;;5.19;86.32
84145;BME280;74264;48.988;12.040;2024-02-23T09:19:47;96256.31;;;5.27;87.40
84145;BME280;74264;48.988;12.040;2024-02-23T09:22:13;96257.31;;;5.26;85.31
84145;BME280;74264;48.988;12.040;2024-02-23T09:24:42;96255.66;;;5.25;86.40
84145;BME280;74264;48.988;12.040;2024-02-23T09:27:07;96248.44;;;5.27;86.72
84145;BME280;74264;48.988;12.040;2024-02-23T09:29:34;96261.56;;;5.27;86.29
84145;BME280;74264;48.988;12.040;2024-02-23T09:31:59;96271.41;;;5.25;85.87
84145;BME280;74264;48.988;12.040;2024-02-23T09:34:25;96276.31;;;5.28;86.25
84145;BME280;74264;48.988;12.040;2024-02-23T09:36:51;96288.81;;;5.26;86.44
84145;BME280;74264;48.988;12.040;2024-02-23T09:39:17;96305.88;;;5.22;85.80
84145;BME280;74264;48.988;12.040;2024-02-23T09:41:43;96298.47;;;5.25;85.59
84145;BME280;74264;48.988;12.040;2024-02-23T09:44:09;96291.25;;;5.27;85.29
84145;BME280;74264;48.988;12.040;2024-02-23T09:46:40;96289.78;;;5.25;85.23
84145;BME280;74264;48.988;12.040;2024-02-23T09:49:06;96292.22;;;5.26;84.94
84145;BME280;74264;48.988;12.040;2024-02-23T09:51:34;96301.09;;;5.25;84.47
84145;BME280;74264;48.988;12.040;2024-02-23T09:54:01;96308.16;;;5.25;84.31
84145;BME280;74264;48.988;12.040;2024-02-23T09:56:28;96309.94;;;5.24;84.31
84145;BME280;74264;48.988;12.040;2024-02-23T09:59:00;96299.91;;;5.28;84.91
84145;BME280;74264;48.988;12.040;2024-02-23T10:01:31;96304.84;;;5.31;84.18
84145;BME280;74264;48.988;12.040;2024-02-23T10:04:00;96293.69;;;5.29;84.86
84145;BME280;74264;48.988;12.040;2024-02-23T10:06:26;96289.91;;;5.31;85.22
84145;BME280;74264;48.988;12.040;2024-02-23T10:08:53;96287.03;;;5.41;85.28
84145;BME280;74264;48.988;12.040;2024-02-23T10:11:21;96288.22;;;5.38;84.81
84145;BME280;74264;48.988;12.040;2024-02-23T10:13:48;96290.00;;;5.38;84.21
84145;BME280;74264;48.988;12.040;2024-02-23T10:16:15;96292.63;;;5.38;84.47
84145;BME280;74264;48.988;12.040;2024-02-23T10:18:41;96287.56;;;5.36;82.38
84145;BME280;74264;48.988;12.040;2024-02-23T10:21:07;96296.88;;;5.39;83.17
84145;BME280;74264;48.988;12.040;2024-02-23T10:23:32;96290.00;;;5.38;83.29
84145;BME280;74264;48.988;12.040;2024-02-23T10:25:58;96293.28;;;5.40;83.71
84145;BME280;74264;48.988;12.040;2024-02-23T10:28:24;96283.63;;;5.40;83.72
84145;BME280;74264;48.988;12.040;2024-02-23T10:30:50;96279.00;;;5.42;83.01
84145;BME280;74264;48.988;12.040;2024-02-23T10:33:19;96282.88;;;5.46;81.71
84145;BME280;74264;48.988;12.040;2024-02-23T10:35:48;96285.97;;;5.50;82.02
84145;BME280;74264;48.988;12.040;2024-02-23T10:38:18;96285.81;;;5.51;80.75
84145;BME280;74264;48.988;12.040;2024-02-23T10:40:44;96278.91;;;5.50;80.30
84145;BME280;74264;48.988;12.040;2024-02-23T10:43:12;96288.53;;;5.58;80.83
84145;BME280;74264;48.988;12.040;2024-02-23T10:45:42;96291.91;;;5.66;81.00
84145;BME280;74264;48.988;12.040;2024-02-23T10:48:09;96286.31;;;5.69;79.67
84145;BME280;74264;48.988;12.040;2024-02-23T10:50:36;96293.66;;;5.74;80.94
84145;BME280;74264;48.988;12.040;2024-02-23T10:53:04;96293.13;;;5.78;80.11
84145;BME280;74264;48.988;12.040;2024-02-23T10:55:32;96288.00;;;5.85;80.80
84145;BME280;74264;48.988;12.040;2024-02-23T10:57:58;96290.88;;;5.75;78.94
84145;BME280;74264;48.988;12.040;2024-02-23T11:00:24;96291.03;;;5.74;78.76
84145;BME280;74264;48.988;12.040;2024-02-23T11:02:52;96283.44;;;5.79;79.89
84145;BME280;74264;48.988;12.040;2024-02-23T11:05:19;96283.09;;;5.82;79.23
84145;BME280;74264;48.988;12.040;2024-02-23T11:07:48;96269.88;;;5.75;76.24
84145;BME280;74264;48.988;12.040;2024-02-23T11:10:15;96274.22;;;5.83;77.85
84145;BME280;74264;48.988;12.040;2024-02-23T11:12:41;96269.28;;;5.88;78.34
84145;BME280;74264;48.988;12.040;2024-02-23T11:15:07;96256.16;;;5.88;77.93
84145;BME280;74264;48.988;12.040;2024-02-23T11:17:35;96253.97;;;5.91;77.49
84145;BME280;74264;48.988;12.040;2024-02-23T11:20:04;96255.06;;;5.97;78.33
84145;BME280;74264;48.988;12.040;2024-02-23T11:22:31;96245.66;;;6.03;76.76
84145;BME280;74264;48.988;12.040;2024-02-23T11:25:03;96250.53;;;6.06;76.71
84145;BME280;74264;48.988;12.040;2024-02-23T11:27:32;96245.91;;;6.08;76.70
84145;BME280;74264;48.988;12.040;2024-02-23T11:30:05;96250.25;;;6.15;78.08
84145;BME280;74264;48.988;12.040;2024-02-23T11:35:07;96262.38;;;6.16;76.68
84145;BME280;74264;48.988;12.040;2024-02-23T11:37:53;96258.72;;;6.25;76.57
84145;BME280;74264;48.988;12.040;2024-02-23T11:40:32;96257.63;;;6.34;75.60
84145;BME280;74264;48.988;12.040;2024-02-23T11:42:59;96252.88;;;6.44;76.14
84145;BME280;74264;48.988;12.040;2024-02-23T11:45:30;96260.94;;;6.43;77.38
84145;BME280;74264;48.988;12.040;2024-02-23T11:47:56;96250.97;;;6.38;75.51
84145;BME280;74264;48.988;12.040;2024-02-23T11:50:22;96254.41;;;6.39;76.52
84145;BME280;74264;48.988;12.040;2024-02-23T11:52:48;96254.78;;;6.36;76.58
84145;BME280;74264;48.988;12.040;2024-02-23T11:55:18;96247.16;;;6.41;76.93
84145;BME280;74264;48.988;12.040;2024-02-23T11:57:44;96246.91;;;6.36;75.68
84145;BME280;74264;48.988;12.040;2024-02-23T12:00:10;96245.00;;;6.30;77.80
84145;BME280;74264;48.988;12.040;2024-02-23T12:02:36;96248.91;;;6.34;77.97
84145;BME280;74264;48.988;12.040;2024-02-23T12:05:02;96244.78;;;6.46;77.80
84145;BME280;74264;48.988;12.040;2024-02-23T12:07:32;96249.53;;;6.36;77.31
84145;BME280;74264;48.988;12.040;2024-02-23T12:09:58;96250.97;;;6.38;77.69
84145;BME280;74264;48.988;12.040;2024-02-23T12:12:27;96251.44;;;6.27;77.89
84145;BME280;74264;48.988;12.040;2024-02-23T12:14:53;96237.13;;;6.30;78.60
84145;BME280;74264;48.988;12.040;2024-02-23T12:17:18;96238.91;;;6.29;78.25
84145;BME280;74264;48.988;12.040;2024-02-23T12:19:44;96245.00;;;6.30;78.88
84145;BME280;74264;48.988;12.040;2024-02-23T12:22:10;96236.47;;;6.28;76.93
84145;BME280;74264;48.988;12.040;2024-02-23T12:24:36;96244.19;;;6.29;78.36
84145;BME280;74264;48.988;12.040;2024-02-23T12:27:02;96236.28;;;6.29;78.10
84145;BME280;74264;48.988;12.040;2024-02-23T12:29:28;96227.06;;;6.33;78.49
84145;BME280;74264;48.988;12.040;2024-02-23T12:32:04;96228.41;;;6.29;77.80
84145;BME280;74264;48.988;12.040;2024-02-23T12:34:30;96212.47;;;6.31;78.40
84145;BME280;74264;48.988;12.040;2024-02-23T12:36:55;96210.28;;;6.34;78.81
84145;BME280;74264;48.988;12.040;2024-02-23T12:39:21;96215.38;;;6.36;76.08
84145;BME280;74264;48.988;12.040;2024-02-23T12:41:47;96215.91;;;6.31;77.72
84145;BME280;74264;48.988;12.040;2024-02-23T12:44:13;96225.72;;;6.23;77.23
84145;BME280;74264;48.988;12.040;2024-02-23T12:46:39;96235.78;;;6.19;76.73
84145;BME280;74264;48.988;12.040;2024-02-23T12:49:05;96228.53;;;6.21;76.58
84145;BME280;74264;48.988;12.040;2024-02-23T12:51:30;96229.94;;;6.24;76.28
84145;BME280;74264;48.988;12.040;2024-02-23T12:53:56;96239.47;;;6.25;76.12
84145;BME280;74264;48.988;12.040;2024-02-23T12:56:21;96241.66;;;6.21;76.69
84145;BME280;74264;48.988;12.040;2024-02-23T12:58:48;96250.97;;;6.24;76.83